Time;durP1;ratioP1;P1;durP2;ratioP2;P2;SDS_P1;SDS_P2;PMS_P1;PMS_P2;Temp;Humidity;BMP_temperature;BMP_pressure;BME280_temperature;BME280_humidity;BME280_pressure;Samples;Min_cycle;Max_cycle;Signal;HPM_P1;HPM_P2
2022/12/29 00:00:10;;;;;;;3.65;1.80;;;;;;;11.49;60.29;98991.69;341035;29;1056;-69
2022/12/29 00:00:22;;;;;;;2.95;1.67;;;;;;;11.48;60.49;98988.25;340847;28;1945;-69
2022/12/29 00:00:34;;;;;;;2.75;1.52;;;;;;;11.53;60.16;98994.09;340587;29;1805;-69
2022/12/29 00:00:48;;;;;;;3.05;1.67;;;;;;;11.55;60.38;98989.66;340070;29;1814;-69
2022/12/29 00:01:01;;;;;;;3.47;1.73;;;;;;;11.60;60.35;98992.88;340819;28;1973;-69
2022/12/29 00:01:13;;;;;;;3.08;1.63;;;;;;;11.65;60.23;98984.00;339620;29;2199;-69
2022/12/29 00:01:25;;;;;;;3.60;1.80;;;;;;;11.64;60.11;98992.75;340446;29;1633;-68
2022/12/29 00:01:37;;;;;;;3.42;1.80;;;;;;;11.56;60.30;98990.50;340998;29;1072;-69
2022/12/29 00:01:49;;;;;;;3.13;2.05;;;;;;;11.54;60.17;98990.56;340620;29;1982;-69
2022/12/29 00:02:01;;;;;;;4.25;2.40;;;;;;;11.48;60.75;98985.66;340986;29;1095;-69
2022/12/29 00:02:14;;;;;;;4.28;2.35;;;;;;;11.54;60.81;98992.34;341086;29;1064;-69
2022/12/29 00:02:26;;;;;;;3.63;1.90;;;;;;;11.59;60.30;98991.22;340839;29;1587;-69
2022/12/29 00:02:38;;;;;;;3.05;1.63;;;;;;;11.54;60.17;98990.56;339460;29;1755;-69
2022/12/29 00:02:50;;;;;;;3.65;1.70;;;;;;;11.58;60.26;98984.31;338453;29;1067;-69
2022/12/29 00:03:03;;;;;;;3.08;1.55;;;;;;;11.63;59.93;98991.91;338595;29;1084;-69
2022/12/29 00:03:15;;;;;;;3.15;1.50;;;;;;;11.65;60.10;98984.88;338334;29;1024;-69
2022/12/29 00:03:28;;;;;;;2.78;1.40;;;;;;;11.70;59.93;98980.28;338498;29;1155;-69
2022/12/29 00:03:45;;;;;;;2.88;1.50;;;;;;;11.64;60.10;98988.38;338516;29;1056;-69
2022/12/29 00:03:57;;;;;;;2.78;1.50;;;;;;;11.70;60.16;98976.84;338571;29;1768;-70
2022/12/29 00:04:11;;;;;;;2.90;1.40;;;;;;;11.72;59.67;98986.25;339751;29;1793;-70
2022/12/29 00:04:26;;;;;;;2.20;1.35;;;;;;;11.74;59.70;98988.78;339936;29;1198;-69
2022/12/29 00:04:38;;;;;;;2.80;1.60;;;;;;;11.83;59.35;98985.75;340989;29;1122;-69
2022/12/29 00:04:50;;;;;;;3.38;1.80;;;;;;;11.85;59.28;98978.72;340983;29;1015;-69
2022/12/29 00:05:03;;;;;;;3.88;2.00;;;;;;;12.03;59.25;98976.13;340136;28;1645;-69
2022/12/29 00:05:15;;;;;;;4.43;1.80;;;;;;;11.89;59.04;98980.28;340508;29;1780;-70
2022/12/29 00:05:27;;;;;;;3.88;1.80;;;;;;;11.94;59.08;98980.88;340776;29;1433;-69
2022/12/29 00:05:39;;;;;;;3.55;1.80;;;;;;;11.96;59.16;98968.63;340982;29;1845;-70
2022/12/29 00:05:55;;;;;;;2.80;1.60;;;;;;;12.03;58.75;98978.75;340744;29;1343;-70
2022/12/29 00:06:07;;;;;;;2.60;1.60;;;;;;;11.99;59.06;98978.03;341003;29;1477;-70
2022/12/29 00:06:19;;;;;;;2.30;1.40;;;;;;;11.99;58.97;98973.69;341158;29;1360;-69
2022/12/29 00:06:31;;;;;;;2.00;1.30;;;;;;;12.02;58.72;98971.88;340910;29;1146;-70
2022/12/29 00:06:44;;;;;;;1.95;1.30;;;;;;;12.03;58.93;98968.31;341084;29;1331;-69
2022/12/29 00:06:56;;;;;;;3.33;1.55;;;;;;;12.05;58.95;98971.69;341099;29;1088;-69
2022/12/29 00:07:10;;;;;;;3.35;1.60;;;;;;;11.99;58.65;98965.88;340094;28;1896;-69
2022/12/29 00:07:25;;;;;;;3.13;1.52;;;;;;;11.95;58.85;98972.16;341323;28;1363;-69
2022/12/29 00:07:37;;;;;;;2.75;1.40;;;;;;;12.03;58.80;98976.13;340981;29;2008;-70
2022/12/29 00:07:48;;;;;;;1.63;1.30;;;;;;;12.08;58.58;98968.94;340884;29;1242;-70
2022/12/29 00:08:00;;;;;;;2.03;1.35;;;;;;;12.13;58.63;98974.75;340265;29;2130;-69
2022/12/29 00:08:12;;;;;;;2.10;1.40;;;;;;;12.11;58.40;98977.47;341099;29;1871;-69
2022/12/29 00:08:39;;;;;;;2.63;1.30;;;;;;;12.11;58.31;98976.59;340774;29;1392;-69
2022/12/29 00:08:51;;;;;;;3.33;1.45;;;;;;;12.12;58.60;98973.09;340936;29;1044;-69
2022/12/29 00:09:03;;;;;;;3.22;1.50;;;;;;;12.18;58.33;98976.22;340936;28;1307;-70
2022/12/29 00:09:16;;;;;;;3.67;1.50;;;;;;;12.17;58.42;98971.94;340958;29;1076;-69
2022/12/29 00:09:28;;;;;;;2.80;1.27;;;;;;;12.21;58.25;98970.00;339782;29;1060;-69
2022/12/29 00:09:40;;;;;;;1.98;1.23;;;;;;;12.20;58.16;98970.94;339752;29;1093;-69
2022/12/29 00:09:52;;;;;;;1.88;1.30;;;;;;;12.19;58.21;98969.25;339747;29;1814;-69
2022/12/29 00:10:04;;;;;;;2.42;1.33;;;;;;;12.19;58.13;98969.25;340989;29;1076;-69
2022/12/29 00:10:16;;;;;;;2.80;1.30;;;;;;;12.18;58.48;98964.97;341025;29;1321;-69
2022/12/29 00:10:28;;;;;;;2.35;1.20;;;;;;;12.20;58.34;98965.72;340918;29;1213;-69
2022/12/29 00:10:40;;;;;;;1.80;1.15;;;;;;;12.18;58.36;98967.56;340796;28;1269;-70
2022/12/29 00:10:53;;;;;;;3.83;1.30;;;;;;;12.23;58.14;98970.78;341195;29;1020;-69
2022/12/29 00:11:17;;;;;;;4.63;1.40;;;;;;;12.16;58.46;98969.41;341893;28;1342;-69
2022/12/29 00:11:29;;;;;;;2.88;1.30;;;;;;;12.24;58.56;98967.25;339733;29;972;-70
2022/12/29 00:11:41;;;;;;;3.28;1.35;;;;;;;12.26;58.33;98965.41;339706;29;1281;-70
2022/12/29 00:11:53;;;;;;;2.90;1.40;;;;;;;12.25;58.59;98957.66;339720;29;1298;-69
2022/12/29 00:12:05;;;;;;;2.95;1.40;;;;;;;12.22;58.36;98969.09;339900;29;1024;-69
2022/12/29 00:12:17;;;;;;;2.10;1.27;;;;;;;12.24;58.32;98962.06;340896;28;1367;-69
2022/12/29 00:15:36;;;;;;;1.98;1.20;;;;;;;12.22;58.46;98969.09;341173;29;1012;-69
2022/12/29 00:15:38;;;;;;;3.85;1.20;;;;;;;12.34;58.33;98968.47;340057;28;1308;-69
2022/12/29 00:15:50;;;;;;;4.70;1.25;;;;;;;12.34;58.02;98958.06;340812;29;1036;-69
2022/12/29 00:16:02;;;;;;;2.63;1.20;;;;;;;12.41;57.96;98957.75;340837;29;1052;-69
2022/12/29 00:16:14;;;;;;;2.58;1.20;;;;;;;12.42;57.62;98965.50;340964;29;1337;-68
2022/12/29 00:16:27;;;;;;;2.97;1.30;;;;;;;12.52;57.83;98969.31;339569;29;1125;-69
2022/12/29 00:16:44;;;;;;;3.05;1.35;;;;;;;12.55;57.61;98969.13;339808;29;1622;-69
2022/12/29 00:16:56;;;;;;;2.92;1.30;;;;;;;12.62;57.13;98964.47;339563;29;1105;-69
2022/12/29 00:17:08;;;;;;;3.92;1.27;;;;;;;12.64;57.25;98975.66;339614;28;1220;-69
2022/12/29 00:17:20;;;;;;;3.75;1.30;;;;;;;12.64;57.08;98969.59;340808;29;1394;-69
2022/12/29 00:17:32;;;;;;;3.85;1.30;;;;;;;12.58;57.18;98970.75;340451;29;2724;-69
2022/12/29 00:17:44;;;;;;;2.92;1.20;;;;;;;12.57;57.45;98971.66;340331;29;1874;-69
2022/12/29 00:17:56;;;;;;;2.35;1.20;;;;;;;12.55;57.80;98961.31;340883;29;1171;-69
2022/12/29 00:18:08;;;;;;;2.22;1.13;;;;;;;12.58;57.43;98960.34;340994;29;1194;-69
2022/12/29 00:18:20;;;;;;;2.42;1.17;;;;;;;12.58;57.69;98966.38;339695;29;1388;-69
2022/12/29 00:18:32;;;;;;;2.92;1.40;;;;;;;12.55;57.60;98965.69;339819;29;1132;-69
2022/12/29 00:18:44;;;;;;;2.53;1.40;;;;;;;12.56;57.41;98970.00;339798;29;1037;-69
2022/12/29 00:18:57;;;;;;;2.17;1.20;;;;;;;12.50;57.88;98967.72;339226;29;1328;-69
2022/12/29 00:35:07;;;;;;;3.00;1.20;;;;;;;12.52;57.83;98971.06;338918;29;1669;-70
2022/12/29 00:35:10;;;;;;;1.10;0.80;;;;;;;13.26;55.82;98964.53;340629;29;1967;-69
2022/12/29 00:35:33;;;;;;;2.05;1.00;;;;;;;13.25;55.91;98960.28;340934;29;1354;-69
2022/12/29 00:35:52;;;;;;;3.20;1.27;;;;;;;13.23;55.81;98975.16;339915;28;1534;-69
2022/12/29 00:36:10;;;;;;;2.38;1.35;;;;;;;13.28;55.88;98962.69;339678;29;1307;-69
2022/12/29 00:36:31;;;;;;;1.60;1.00;;;;;;;13.28;55.89;98965.31;340485;29;1308;-68
2022/12/29 00:36:44;;;;;;;3.17;1.02;;;;;;;13.30;55.85;98953.91;339805;29;1112;-69
2022/12/29 00:36:56;;;;;;;3.15;1.10;;;;;;;13.31;55.85;98960.78;339417;29;944;-69
2022/12/29 00:37:09;;;;;;;2.90;1.10;;;;;;;13.25;56.16;98955.88;339800;28;1256;-69
2022/12/29 00:44:04;;;;;;;2.40;1.00;;;;;;;13.25;55.89;98952.44;340447;28;1455;-69
2022/12/29 00:44:09;;;;;;;3.55;1.30;;;;;;;13.11;57.18;98964.47;340862;29;1076;-69
2022/12/29 00:44:21;;;;;;;1.95;1.20;;;;;;;13.07;57.22;98962.09;340880;28;1326;-70
2022/12/29 00:44:33;;;;;;;1.85;1.20;;;;;;;13.09;57.21;98961.09;340739;29;1052;-69
2022/12/29 00:44:45;;;;;;;2.03;1.30;;;;;;;13.10;57.07;98962.78;340214;28;1785;-69
2022/12/29 00:44:57;;;;;;;2.88;1.40;;;;;;;13.10;57.09;98968.00;341143;29;1248;-69
2022/12/29 00:45:09;;;;;;;2.75;1.30;;;;;;;13.10;57.26;98972.34;340983;29;1088;-69
2022/12/29 00:45:21;;;;;;;2.60;1.20;;;;;;;13.09;58.01;98968.09;340734;28;1409;-69
2022/12/29 00:45:33;;;;;;;2.90;1.08;;;;;;;13.09;58.12;98966.31;340244;28;1415;-69
2022/12/29 00:45:45;;;;;;;4.33;1.10;;;;;;;13.09;58.14;98963.69;340777;29;1437;-69
2022/12/29 00:45:57;;;;;;;3.35;1.00;;;;;;;13.09;58.35;98971.53;340993;29;1151;-69
2022/12/29 00:46:09;;;;;;;2.00;1.00;;;;;;;13.08;58.23;98964.63;341023;29;1242;-69
2022/12/29 00:46:34;;;;;;;2.40;1.00;;;;;;;13.04;57.68;98968.34;339808;29;1257;-69
2022/12/29 00:46:46;;;;;;;2.83;1.23;;;;;;;13.03;57.54;98969.25;339796;29;1304;-69
2022/12/29 00:47:02;;;;;;;3.45;1.30;;;;;;;13.04;57.64;98968.34;340975;28;1224;-69
2022/12/29 00:47:15;;;;;;;4.95;1.30;;;;;;;13.00;57.65;98972.03;340775;29;1374;-69
2022/12/29 00:47:29;;;;;;;3.88;1.20;;;;;;;12.95;57.52;98968.81;340759;29;1029;-69
2022/12/29 00:47:41;;;;;;;2.17;1.10;;;;;;;12.88;57.98;98973.53;340838;29;1255;-69
2022/12/29 00:47:52;;;;;;;1.92;1.23;;;;;;;12.84;58.18;98965.91;340892;29;1148;-69
2022/12/29 00:48:04;;;;;;;2.42;1.23;;;;;;;12.83;57.95;98974.69;340634;29;1200;-69
2022/12/29 00:49:29;;;;;;;3.03;1.23;;;;;;;12.80;58.12;98970.47;340796;29;1343;-69
2022/12/29 00:49:32;;;;;;;2.72;1.40;;;;;;;12.77;57.85;98975.84;340561;29;1296;-69
2022/12/29 00:49:45;;;;;;;1.83;1.10;;;;;;;12.78;57.73;98978.38;340284;29;1758;-69
2022/12/29 00:49:57;;;;;;;2.33;1.10;;;;;;;12.78;57.86;98975.78;340776;29;1081;-69
2022/12/29 00:50:09;;;;;;;2.55;1.10;;;;;;;12.76;57.76;98972.41;340812;28;1121;-69
2022/12/29 00:50:20;;;;;;;3.25;1.20;;;;;;;12.76;58.14;98979.38;339471;29;1556;-69
2022/12/29 00:50:32;;;;;;;3.72;1.25;;;;;;;12.75;57.97;98977.69;339578;29;1238;-69
2022/12/29 00:50:44;;;;;;;4.55;1.48;;;;;;;12.75;57.97;98973.31;339716;29;1115;-69
2022/12/29 00:50:56;;;;;;;2.63;1.40;;;;;;;12.74;58.09;98981.25;339915;29;1142;-70
2022/12/29 00:51:08;;;;;;;3.28;1.25;;;;;;;12.72;58.45;98978.69;339443;29;1068;-70
2022/12/29 00:51:20;;;;;;;2.90;1.27;;;;;;;12.72;58.37;98978.69;339449;29;1387;-69
2022/12/29 00:51:32;;;;;;;2.53;1.30;;;;;;;12.73;58.45;98974.31;338896;29;1683;-70
2022/12/29 00:51:45;;;;;;;1.77;1.30;;;;;;;12.71;58.63;98976.16;338592;29;1293;-69
2022/12/29 00:52:00;;;;;;;1.98;1.30;;;;;;;12.71;58.27;98979.59;339651;29;1103;-69
2022/12/29 00:52:13;;;;;;;2.20;1.13;;;;;;;12.67;58.40;98980.69;339216;29;1532;-69
2022/12/29 00:52:25;;;;;;;2.42;1.27;;;;;;;12.66;57.96;98973.81;340190;29;1367;-69
2022/12/29 00:52:37;;;;;;;2.78;1.40;;;;;;;12.66;58.03;98973.81;341130;29;1064;-69
2022/12/29 00:52:49;;;;;;;3.22;1.42;;;;;;;12.61;58.37;98970.59;340853;29;1245;-69
2022/12/29 00:53:01;;;;;;;2.30;1.38;;;;;;;12.57;58.29;98975.09;340888;29;1117;-69
2022/12/29 00:53:13;;;;;;;2.10;1.27;;;;;;;12.77;58.57;98970.63;341216;29;1008;-69
2022/12/29 00:53:25;;;;;;;2.30;1.30;;;;;;;12.84;57.83;98971.13;340633;28;1300;-69
2022/12/29 00:53:36;;;;;;;2.75;1.40;;;;;;;12.82;57.62;98972.97;340199;29;1475;-69
2022/12/29 00:53:48;;;;;;;3.25;1.40;;;;;;;12.84;57.67;98968.53;340985;29;1240;-70
2022/12/29 00:54:00;;;;;;;2.78;1.20;;;;;;;12.90;57.31;98976.91;340841;29;4563;-69
2022/12/29 00:54:13;;;;;;;2.97;1.23;;;;;;;12.94;57.27;98977.59;340867;29;1127;-69
2022/12/29 00:54:27;;;;;;;2.92;1.17;;;;;;;12.95;57.17;98968.81;339613;29;1343;-69
2022/12/29 00:54:40;;;;;;;2.00;1.33;;;;;;;12.95;57.61;98974.88;339557;29;1160;-69
2022/12/29 00:54:52;;;;;;;2.30;1.55;;;;;;;12.96;57.48;98978.34;339702;29;1088;-69
2022/12/29 00:55:04;;;;;;;3.22;1.50;;;;;;;12.95;57.22;98979.25;339635;29;1303;-69
2022/12/29 00:55:16;;;;;;;3.40;1.40;;;;;;;12.91;57.17;98980.34;339808;28;1591;-69
2022/12/29 00:55:28;;;;;;;3.38;1.30;;;;;;;12.90;56.89;98986.50;342351;28;1076;-69
2022/12/29 00:55:40;;;;;;;1.90;1.20;;;;;;;12.82;56.91;98978.19;342090;28;1063;-69
2022/12/29 00:55:52;;;;;;;1.67;1.20;;;;;;;12.79;57.23;98980.03;342349;28;1078;-69
2022/12/29 00:56:04;;;;;;;2.08;1.27;;;;;;;12.59;57.21;98982.84;342105;28;1068;-69
2022/12/29 00:56:16;;;;;;;2.55;1.40;;;;;;;12.53;57.70;98983.16;342108;28;1421;-69
2022/12/29 00:56:29;;;;;;;2.55;1.30;;;;;;;12.46;57.56;98981.81;340920;29;1048;-70
2022/12/29 00:56:41;;;;;;;2.45;1.35;;;;;;;12.35;57.63;98977.13;340913;28;1172;-69
2022/12/29 00:56:53;;;;;;;3.10;1.40;;;;;;;12.36;57.67;98982.28;340860;29;1052;-69
2022/12/29 00:57:07;;;;;;;3.45;1.42;;;;;;;12.25;58.07;98981.97;340808;29;1092;-69
2022/12/29 00:57:19;;;;;;;2.58;1.38;;;;;;;12.22;58.17;98979.53;341218;28;1684;-69
2022/12/29 00:57:31;;;;;;;3.20;1.40;;;;;;;12.22;58.02;98979.53;340662;29;1547;-69
2022/12/29 00:57:43;;;;;;;3.45;1.35;;;;;;;12.26;57.87;98975.84;340641;29;1271;-69
2022/12/29 00:57:55;;;;;;;3.00;1.17;;;;;;;12.22;57.80;98974.31;340954;29;1043;-69
2022/12/29 00:58:07;;;;;;;3.50;1.30;;;;;;;12.25;57.72;98976.75;340907;29;1180;-69
2022/12/29 00:58:19;;;;;;;3.58;1.30;;;;;;;12.29;57.58;98980.03;340753;29;1239;-69
2022/12/29 00:58:31;;;;;;;2.72;1.23;;;;;;;12.24;57.52;98977.69;341385;28;1195;-69
2022/12/29 00:58:43;;;;;;;2.63;1.38;;;;;;;12.23;57.86;98983.81;342359;28;1080;-69
2022/12/29 00:58:55;;;;;;;2.58;1.40;;;;;;;12.21;58.15;98979.59;340527;28;1499;-69
2022/12/29 00:59:10;;;;;;;2.55;1.27;;;;;;;12.21;57.82;98983.03;341039;29;1088;-69
2022/12/29 00:59:23;;;;;;;2.00;1.20;;;;;;;12.23;57.89;98978.59;340644;29;1311;-70
2022/12/29 00:59:40;;;;;;;3.28;1.40;;;;;;;12.26;58.09;98982.81;340266;29;1575;-69
2022/12/29 00:59:52;;;;;;;3.42;1.42;;;;;;;12.27;58.18;98982.72;340525;28;1876;-69
2022/12/29 01:00:04;;;;;;;3.15;1.40;;;;;;;12.29;58.29;98986.09;341093;29;1254;-69
2022/12/29 01:00:16;;;;;;;3.15;1.33;;;;;;;12.30;57.82;98990.41;340807;29;1966;-69
2022/12/29 01:00:28;;;;;;;3.10;1.30;;;;;;;12.26;58.24;98986.28;339651;29;1800;-69
2022/12/29 01:00:40;;;;;;;2.38;1.33;;;;;;;12.23;58.18;98990.78;340794;29;1837;-69
2022/12/29 01:00:52;;;;;;;2.85;1.40;;;;;;;12.25;58.14;98989.78;340887;29;1024;-69
2022/12/29 01:01:07;;;;;;;3.15;1.40;;;;;;;12.26;58.35;98988.88;340719;29;1149;-69
2022/12/29 01:01:19;;;;;;;2.45;1.30;;;;;;;12.25;58.37;98995.00;341314;28;1123;-69
2022/12/29 01:01:31;;;;;;;1.92;1.33;;;;;;;12.24;58.46;98993.31;341204;28;1277;-69
2022/12/29 01:01:44;;;;;;;2.30;1.30;;;;;;;12.23;58.40;98996.81;340825;29;1038;-69
2022/12/29 01:01:57;;;;;;;2.70;1.40;;;;;;;12.24;58.64;98992.47;340757;29;1270;-69
2022/12/29 01:02:10;;;;;;;2.72;1.33;;;;;;;12.27;58.24;98998.34;340870;29;1016;-69
2022/12/29 01:02:22;;;;;;;2.63;1.27;;;;;;;12.28;58.43;98994.84;341559;28;1118;-69
2022/12/29 01:02:34;;;;;;;3.58;1.30;;;;;;;12.26;57.99;98996.69;341321;28;2101;-69
2022/12/29 01:02:46;;;;;;;3.88;1.25;;;;;;;12.25;58.10;99005.41;340854;29;1659;-69
2022/12/29 01:02:58;;;;;;;4.15;1.40;;;;;;;12.22;58.43;98994.31;340907;29;1354;-69
2022/12/29 01:03:10;;;;;;;3.47;1.50;;;;;;;12.24;58.32;98992.47;341032;28;1242;-69
2022/12/29 01:03:25;;;;;;;3.15;1.60;;;;;;;12.19;58.46;98990.09;340720;29;1825;-70
2022/12/29 01:03:38;;;;;;;2.67;1.60;;;;;;;12.08;58.91;98984.59;340787;29;1042;-69
2022/12/29 01:03:50;;;;;;;2.05;1.48;;;;;;;11.91;59.45;98991.47;340793;29;1188;-69
2022/12/29 01:04:03;;;;;;;1.67;1.30;;;;;;;11.69;60.10;98990.75;340559;29;1073;-69
2022/12/29 01:04:15;;;;;;;2.65;1.40;;;;;;;11.60;60.63;99000.69;340693;29;1048;-69
2022/12/29 01:04:29;;;;;;;3.30;1.83;;;;;;;11.59;60.52;98996.41;339485;29;1112;-70
2022/12/29 01:04:41;;;;;;;3.38;1.90;;;;;;;11.69;60.08;99006.38;339709;28;1173;-69
2022/12/29 01:04:53;;;;;;;4.05;2.00;;;;;;;11.68;60.54;99004.72;340959;29;1137;-69
2022/12/29 01:05:05;;;;;;;4.80;1.90;;;;;;;11.73;59.82;99010.53;341206;29;1231;-71
2022/12/29 01:05:18;;;;;;;4.95;1.73;;;;;;;11.77;59.89;99006.84;340971;29;1334;-70
2022/12/29 01:05:29;;;;;;;4.40;1.65;;;;;;;11.79;59.57;99007.63;340765;29;1061;-70
2022/12/29 01:05:41;;;;;;;3.35;1.52;;;;;;;11.82;59.18;98999.69;340932;29;1020;-69
2022/12/29 01:05:53;;;;;;;1.65;1.30;;;;;;;11.79;59.77;98997.22;340995;29;1074;-69
2022/12/29 01:06:08;;;;;;;1.35;1.17;;;;;;;11.82;59.75;98997.06;340565;29;1028;-69
2022/12/29 01:06:20;;;;;;;1.90;1.20;;;;;;;11.80;59.88;98997.16;339709;28;1634;-69
2022/12/29 01:06:33;;;;;;;2.65;1.30;;;;;;;11.80;59.81;98993.69;339026;29;2948;-70
2022/12/29 01:06:47;;;;;;;2.80;1.40;;;;;;;11.88;59.40;98996.78;339267;29;3066;-70
2022/12/29 01:06:59;;;;;;;2.95;1.40;;;;;;;11.88;59.57;98998.53;340263;29;5470;-69
2022/12/29 01:07:14;;;;;;;2.70;1.30;;;;;;;11.83;59.85;98998.78;341019;29;1116;-70
2022/12/29 01:07:26;;;;;;;2.95;1.30;;;;;;;11.80;60.12;98993.69;340814;29;3130;-70
2022/12/29 01:07:38;;;;;;;3.40;1.40;;;;;;;11.82;60.25;99004.88;341129;29;1158;-70
2022/12/29 01:07:50;;;;;;;2.60;1.38;;;;;;;11.78;60.40;98998.97;340536;28;2070;-70
2022/12/29 01:08:02;;;;;;;3.20;1.40;;;;;;;11.78;60.39;99001.59;340486;28;1711;-69
2022/12/29 01:08:14;;;;;;;3.15;1.40;;;;;;;11.80;60.20;99006.72;340481;28;2034;-71
2022/12/29 01:08:28;;;;;;;3.42;1.40;;;;;;;11.83;60.35;99011.78;340451;29;1745;-70
2022/12/29 01:08:40;;;;;;;3.55;1.45;;;;;;;11.82;60.25;99012.69;340728;29;1069;-70
2022/12/29 01:10:11;;;;;;;2.03;1.25;;;;;;;11.87;60.72;98999.44;340537;29;1393;-70
2022/12/29 01:10:23;;;;;;;1.95;1.35;;;;;;;12.03;60.35;98994.38;340146;29;1417;-70
2022/12/29 01:10:34;;;;;;;2.70;1.30;;;;;;;12.09;60.30;99007.09;340955;29;1055;-69
2022/12/29 01:10:57;;;;;;;3.42;1.30;;;;;;;12.12;60.36;98988.72;339442;29;908;-70
2022/12/29 01:11:12;;;;;;;4.00;1.20;;;;;;;12.21;59.88;98993.47;339646;29;1172;-70
2022/12/29 01:11:23;;;;;;;3.15;1.25;;;;;;;12.28;59.94;98992.25;338834;29;1990;-69
2022/12/29 01:11:36;;;;;;;3.58;1.30;;;;;;;12.29;60.01;98991.31;338911;29;1847;-69
2022/12/29 01:11:48;;;;;;;2.20;1.20;;;;;;;12.31;59.92;99005.09;339085;29;1675;-70
2022/12/29 01:12:00;;;;;;;2.75;1.20;;;;;;;12.41;59.47;98987.25;339452;29;1065;-70
2022/12/29 01:12:12;;;;;;;4.20;1.10;;;;;;;12.48;59.67;98995.63;339854;29;1080;-69
2022/12/29 01:12:40;;;;;;;4.10;1.00;;;;;;;12.46;59.80;98992.25;338125;29;1371;-69
2022/12/29 01:12:52;;;;;;;3.38;1.13;;;;;;;12.50;59.84;99001.59;338049;29;2780;-69
2022/12/29 01:13:04;;;;;;;3.50;1.20;;;;;;;12.51;59.67;99006.72;338233;29;1084;-70
2022/12/29 01:13:16;;;;;;;2.63;1.00;;;;;;;12.51;59.72;98990.22;337804;29;1674;-71
2022/12/29 01:13:29;;;;;;;2.20;1.00;;;;;;;12.60;59.56;99005.41;338108;29;1416;-69
2022/12/29 01:13:42;;;;;;;3.22;1.00;;;;;;;12.65;59.20;98998.19;337682;29;1688;-70
2022/12/29 01:13:54;;;;;;;3.40;1.15;;;;;;;12.69;59.34;98999.72;337423;29;1760;-69
2022/12/29 01:14:06;;;;;;;3.30;1.20;;;;;;;12.83;58.85;99000.78;337264;29;1061;-70
2022/12/29 01:14:19;;;;;;;1.98;1.10;;;;;;;12.83;58.95;98990.34;338820;29;1160;-69
2022/12/29 01:14:31;;;;;;;1.77;0.93;;;;;;;12.92;58.75;99010.72;340892;29;1578;-69
2022/12/29 01:14:43;;;;;;;1.27;0.80;;;;;;;12.92;59.28;98969.00;339862;29;1659;-70
2022/12/29 01:14:55;;;;;;;1.10;0.80;;;;;;;12.93;58.96;99017.63;340562;29;1794;-69
2022/12/29 01:15:10;;;;;;;1.17;0.80;;;;;;;12.88;59.40;98986.56;339473;29;1019;-68
2022/12/29 01:15:22;;;;;;;1.08;0.77;;;;;;;12.83;59.55;98985.13;340226;28;1784;-71
2022/12/29 01:15:34;;;;;;;1.67;1.00;;;;;;;12.86;59.67;98995.38;340670;28;1229;-70
2022/12/29 01:15:50;;;;;;;2.25;1.02;;;;;;;12.84;59.47;98981.56;339902;29;2373;-70
2022/12/29 01:16:03;;;;;;;2.50;0.80;;;;;;;12.82;59.58;98999.06;340652;29;1545;-70
2022/12/29 01:16:15;;;;;;;1.92;0.90;;;;;;;12.85;59.79;98983.28;339437;29;1329;-69
2022/12/29 01:16:29;;;;;;;1.33;1.00;;;;;;;12.79;59.93;98995.69;339429;28;1901;-70
2022/12/29 01:16:41;;;;;;;1.48;0.90;;;;;;;12.82;59.93;99001.69;340759;28;1450;-69
2022/12/29 01:16:53;;;;;;;2.05;0.98;;;;;;;12.74;60.37;99002.94;340086;28;1705;-71
2022/12/29 01:17:06;;;;;;;2.00;1.00;;;;;;;12.68;61.01;98998.03;340349;29;1236;-70
2022/12/29 01:17:18;;;;;;;1.70;0.95;;;;;;;12.57;61.27;99005.56;340764;29;1339;-70
2022/12/29 01:17:30;;;;;;;2.42;0.90;;;;;;;12.51;61.83;99011.91;340853;29;1047;-71
2022/12/29 01:17:42;;;;;;;3.60;1.00;;;;;;;12.56;61.56;98993.47;340857;29;1290;-69
2022/12/29 01:17:54;;;;;;;3.88;1.20;;;;;;;12.56;61.78;99001.28;340712;29;1982;-69
2022/12/29 01:18:06;;;;;;;3.67;1.17;;;;;;;12.58;61.79;98965.53;340103;29;1758;-68
2022/12/29 01:18:19;;;;;;;3.35;1.20;;;;;;;12.49;62.43;99023.34;340710;28;1216;-69
2022/12/29 01:18:31;;;;;;;2.08;1.02;;;;;;;12.51;62.69;99005.88;340881;29;1236;-68
2022/12/29 01:18:43;;;;;;;1.85;1.00;;;;;;;12.45;62.44;98974.91;340610;29;1484;-71
2022/12/29 01:18:55;;;;;;;1.42;1.00;;;;;;;12.34;62.90;98994.53;340616;29;1087;-69
2022/12/29 01:19:07;;;;;;;1.90;1.00;;;;;;;12.36;63.10;99008.34;340376;29;1679;-69
2022/12/29 01:19:20;;;;;;;3.00;1.17;;;;;;;12.26;63.38;99022.75;340515;29;1304;-69
2022/12/29 01:19:32;;;;;;;3.05;1.10;;;;;;;12.24;63.39;99006.34;340800;29;1079;-70
2022/12/29 01:19:44;;;;;;;3.30;1.02;;;;;;;12.17;63.77;99003.22;340864;29;1052;-69
2022/12/29 01:19:56;;;;;;;2.50;0.95;;;;;;;12.12;64.33;99022.59;340452;29;1291;-69
2022/12/29 01:20:10;;;;;;;1.67;1.00;;;;;;;12.03;64.85;98997.81;340342;28;1654;-70
2022/12/29 01:20:22;;;;;;;3.30;1.20;;;;;;;11.94;65.20;99027.75;340433;29;1085;-69
2022/12/29 01:20:34;;;;;;;3.60;1.30;;;;;;;11.90;65.26;99015.81;340517;29;1082;-70
2022/12/29 01:20:46;;;;;;;2.97;1.20;;;;;;;11.92;65.67;99015.75;340524;29;1059;-70
2022/12/29 01:21:04;;;;;;;2.85;1.10;;;;;;;11.86;66.32;99016.00;340631;29;1037;-69
2022/12/29 01:21:16;;;;;;;3.53;1.17;;;;;;;11.77;66.91;99005.13;339675;29;1707;-71
2022/12/29 01:21:29;;;;;;;2.50;1.10;;;;;;;11.73;66.85;99015.72;340446;28;1233;-70
2022/12/29 01:21:41;;;;;;;1.92;1.10;;;;;;;11.66;67.07;99024.75;340933;29;1040;-70
2022/12/29 01:21:53;;;;;;;2.17;1.20;;;;;;;11.69;67.16;99014.19;340927;29;1079;-69
2022/12/29 01:22:05;;;;;;;2.28;1.13;;;;;;;11.63;66.92;99012.75;340835;29;1116;-70
2022/12/29 01:22:18;;;;;;;2.78;1.13;;;;;;;11.55;67.75;99005.28;339098;29;1902;-70
2022/12/29 01:22:31;;;;;;;3.13;1.23;;;;;;;11.52;68.07;99020.19;338392;29;1028;-70
2022/12/29 01:22:43;;;;;;;2.60;1.15;;;;;;;11.53;68.19;99020.13;338381;29;2143;-69
2022/12/29 01:22:55;;;;;;;2.35;1.10;;;;;;;11.57;67.95;99000.84;339335;29;1192;-69
2022/12/29 01:23:07;;;;;;;2.42;1.10;;;;;;;11.62;67.87;99012.81;339283;29;1243;-70
2022/12/29 01:23:19;;;;;;;2.47;1.08;;;;;;;11.60;67.63;99013.72;338750;29;1603;-69
2022/12/29 01:23:32;;;;;;;1.95;1.00;;;;;;;11.58;68.19;99014.69;339473;29;1782;-70
2022/12/29 01:23:43;;;;;;;1.58;1.13;;;;;;;11.51;68.61;99018.50;339342;29;1045;-70
2022/12/29 01:23:56;;;;;;;2.30;1.20;;;;;;;11.51;68.24;99031.50;339398;29;1027;-69
2022/12/29 01:24:08;;;;;;;2.13;1.10;;;;;;;11.51;68.22;99021.97;339442;29;1088;-70
2022/12/29 01:24:20;;;;;;;3.13;0.95;;;;;;;11.56;67.91;99019.13;339835;29;1349;-70
2022/12/29 01:24:32;;;;;;;3.03;1.00;;;;;;;11.53;68.38;99017.53;340126;29;1627;-71
2022/12/29 01:24:44;;;;;;;3.38;1.02;;;;;;;11.49;68.72;99016.00;341044;28;1207;-70
2022/12/29 01:24:56;;;;;;;2.45;1.20;;;;;;;11.47;68.80;99023.03;340691;29;1319;-70
2022/12/29 01:25:08;;;;;;;1.67;1.10;;;;;;;11.46;68.48;99042.13;340214;29;1566;-71
2022/12/29 01:25:20;;;;;;;1.50;1.13;;;;;;;11.52;68.76;99017.59;340326;29;1670;-69
2022/12/29 01:25:32;;;;;;;2.25;1.20;;;;;;;11.48;69.08;99029.91;339997;29;1780;-70
2022/12/29 01:25:44;;;;;;;2.70;1.13;;;;;;;11.50;68.97;99022.03;340715;29;1039;-70
2022/12/29 01:25:56;;;;;;;2.38;1.05;;;;;;;11.52;69.18;98989.81;340558;29;1256;-70
2022/12/29 01:26:13;;;;;;;1.83;0.90;;;;;;;11.57;69.34;99024.28;340544;29;1266;-70
2022/12/29 01:26:25;;;;;;;1.88;0.95;;;;;;;11.46;69.56;99010.91;340116;28;1896;-71
2022/12/29 01:26:37;;;;;;;1.73;1.05;;;;;;;11.39;69.73;99019.94;338400;29;1885;-70
2022/12/29 01:26:49;;;;;;;1.58;1.00;;;;;;;11.35;70.53;99018.38;339291;29;1652;-70
2022/12/29 01:27:01;;;;;;;3.45;1.00;;;;;;;11.28;70.90;99022.16;339444;29;1309;-70
2022/12/29 01:27:13;;;;;;;3.53;0.98;;;;;;;11.22;71.18;99023.28;339381;29;1328;-70
2022/12/29 01:27:25;;;;;;;2.00;1.10;;;;;;;11.18;71.23;99019.13;339232;29;1361;-69
2022/12/29 01:27:37;;;;;;;2.63;1.20;;;;;;;11.11;71.61;99025.53;339572;29;1056;-70
2022/12/29 01:27:49;;;;;;;3.38;1.20;;;;;;;11.04;71.54;99024.97;338979;29;1363;-70
2022/12/29 01:28:01;;;;;;;4.03;1.20;;;;;;;11.02;71.65;99021.56;338556;29;1738;-70
2022/12/29 01:28:14;;;;;;;3.38;1.13;;;;;;;11.03;71.56;99023.28;338860;29;1860;-69
2022/12/29 01:28:25;;;;;;;2.05;1.10;;;;;;;11.06;71.60;99017.94;337747;29;1821;-70
2022/12/29 01:28:41;;;;;;;2.17;1.05;;;;;;;11.13;71.60;99040.16;338324;29;1432;-69
2022/12/29 01:28:53;;;;;;;2.08;1.00;;;;;;;11.16;71.08;99029.59;338648;29;2140;-70
2022/12/29 01:29:05;;;;;;;3.03;1.23;;;;;;;11.15;70.87;99020.13;339764;29;1178;-70
2022/12/29 01:29:18;;;;;;;3.58;1.50;;;;;;;11.17;71.35;99041.72;339332;29;1382;-71
2022/12/29 01:29:30;;;;;;;3.90;1.58;;;;;;;11.28;70.49;99027.38;339886;29;1051;-70